Time;durP1;ratioP1;P1;durP2;ratioP2;P2;SDS_P1;SDS_P2;PMS_P1;PMS_P2;Temp;Humidity;BMP_temperature;BMP_pressure;BME280_temperature;BME280_humidity;BME280_pressure;Samples;Min_cycle;Max_cycle;Signal;HPM_P1;HPM_P2
2023/01/21 00:02:07;;;;;;;212.10;93.13;;;;;;;-3.19;100.00;102447.03;5052965;28;20024;-58
2023/01/21 00:04:36;;;;;;;216.60;93.07;;;;;;;-3.22;100.00;102453.34;5052358;28;20033;-57
2023/01/21 00:07:03;;;;;;;216.07;96.80;;;;;;;-3.21;100.00;102460.22;5051850;28;20069;-57
2023/01/21 00:09:28;;;;;;;224.73;96.85;;;;;;;-3.22;100.00;102460.94;5052433;28;20045;-58
2023/01/21 00:11:53;;;;;;;212.73;93.18;;;;;;;-3.26;100.00;102462.19;5052191;28;20511;-58
2023/01/21 00:14:19;;;;;;;223.55;98.95;;;;;;;-3.28;100.00;102468.69;5052809;28;20377;-58
2023/01/21 00:16:44;;;;;;;117.38;32.67;;;;;;;-3.20;100.00;102477.09;5052533;28;20108;-57
2023/01/21 00:19:09;;;;;;;115.88;29.45;;;;;;;-3.21;100.00;102475.34;5051886;28;20385;-57
2023/01/21 00:21:35;;;;;;;218.27;97.38;;;;;;;-3.23;100.00;102481.81;5052533;28;20472;-58
2023/01/21 00:24:00;;;;;;;234.60;97.63;;;;;;;-3.25;100.00;102481.66;5052646;28;20051;-57
2023/01/21 00:26:25;;;;;;;224.90;96.22;;;;;;;-3.26;100.00;102473.94;5051813;28;20022;-58
2023/01/21 00:28:50;;;;;;;221.85;95.97;;;;;;;-3.29;100.00;102477.00;5052314;28;20033;-58
2023/01/21 00:31:16;;;;;;;235.10;101.18;;;;;;;-3.29;100.00;102481.13;5052818;28;20178;-57
2023/01/21 00:33:41;;;;;;;218.00;98.55;;;;;;;-3.32;100.00;102477.56;5051520;28;20033;-58
2023/01/21 00:36:11;;;;;;;234.32;97.68;;;;;;;-3.34;100.00;102484.03;5052434;28;20086;-58
2023/01/21 00:38:37;;;;;;;229.57;102.25;;;;;;;-3.31;100.00;102488.53;5052221;28;20380;-58
2023/01/21 00:41:05;;;;;;;231.13;99.57;;;;;;;-3.35;100.00;102487.28;5051982;28;20021;-57
2023/01/21 00:43:31;;;;;;;233.13;102.53;;;;;;;-3.34;100.00;102490.72;5052310;28;20033;-58
2023/01/21 00:45:57;;;;;;;225.05;98.20;;;;;;;-3.37;100.00;102486.22;5055849;28;20025;-58
2023/01/21 00:48:23;;;;;;;238.45;102.53;;;;;;;-3.43;100.00;102490.56;5055616;28;20032;-58
2023/01/21 00:50:50;;;;;;;107.72;30.20;;;;;;;-3.36;100.00;102498.09;5056019;28;20025;-57
2023/01/21 00:53:18;;;;;;;237.07;103.00;;;;;;;-3.41;100.00;102495.78;5056427;28;20037;-58
2023/01/21 00:55:43;;;;;;;115.60;31.52;;;;;;;-3.35;100.00;102511.59;5055367;28;20028;-57
2023/01/21 00:58:09;;;;;;;228.98;99.63;;;;;;;-3.42;100.00;102510.03;5056320;28;20376;-58
2023/01/21 01:00:34;;;;;;;243.77;104.50;;;;;;;-3.45;100.00;102517.22;5055974;28;20542;-58
2023/01/21 01:02:59;;;;;;;248.50;106.35;;;;;;;-3.46;100.00;102522.97;5055305;28;20476;-57
2023/01/21 01:05:25;;;;;;;255.52;107.57;;;;;;;-3.45;100.00;102524.78;5056178;28;20047;-58
2023/01/21 01:07:50;;;;;;;252.35;106.65;;;;;;;-3.47;100.00;102536.34;5055900;28;20048;-58
2023/01/21 01:10:16;;;;;;;248.57;111.72;;;;;;;-3.47;100.00;102541.38;5055077;28;20037;-57
2023/01/21 01:12:42;;;;;;;264.65;111.75;;;;;;;-3.46;100.00;102538.09;5055523;28;20059;-57
2023/01/21 01:15:08;;;;;;;127.32;34.70;;;;;;;-3.39;100.00;102544.78;5055808;28;20021;-58
2023/01/21 01:17:33;;;;;;;270.30;113.13;;;;;;;-3.42;100.00;102550.38;5054891;28;20051;-57
2023/01/21 01:19:59;;;;;;;272.40;115.05;;;;;;;-3.41;100.00;102562.22;5055724;28;20412;-58
2023/01/21 01:22:24;;;;;;;146.07;35.88;;;;;;;-3.38;100.00;102565.09;5055158;28;20025;-57
2023/01/21 01:24:49;;;;;;;271.05;115.57;;;;;;;-3.39;100.00;102572.50;5055512;28;20411;-58
2023/01/21 01:27:15;;;;;;;274.20;116.95;;;;;;;-3.43;100.00;102575.38;5055772;28;20385;-57
2023/01/21 01:29:40;;;;;;;148.93;39.38;;;;;;;-3.37;100.00;102579.50;5054661;28;20052;-58
2023/01/21 01:32:05;;;;;;;286.70;118.88;;;;;;;-3.39;100.00;102587.63;5055550;28;20021;-57
2023/01/21 01:34:30;;;;;;;279.45;120.10;;;;;;;-3.44;100.00;102591.25;5055117;28;20029;-58
2023/01/21 01:36:56;;;;;;;281.35;118.22;;;;;;;-3.45;100.00;102591.97;5054596;28;20099;-58
2023/01/21 01:39:21;;;;;;;288.20;119.97;;;;;;;-3.52;100.00;102592.88;5055412;28;20029;-58
2023/01/21 01:41:47;;;;;;;273.17;118.20;;;;;;;-3.53;100.00;102596.13;5055266;28;20032;-58
2023/01/21 01:45:06;;;;;;;278.40;120.68;;;;;;;-3.55;100.00;102598.47;5054627;28;20040;-58
2023/01/21 01:47:41;;;;;;;147.60;42.03;;;;;;;-3.49;100.00;102605.84;5032928;28;20033;-58
2023/01/21 01:50:10;;;;;;;294.20;127.22;;;;;;;-3.55;100.00;102613.59;5051984;28;20524;-57
2023/01/21 01:52:35;;;;;;;295.17;127.57;;;;;;;-3.56;100.00;102608.38;5054221;28;20033;-58
2023/01/21 01:55:03;;;;;;;303.33;128.73;;;;;;;-3.60;100.00;102609.66;5055204;28;20385;-58
2023/01/21 01:57:34;;;;;;;303.55;128.85;;;;;;;-3.60;100.00;102613.78;5053254;28;20055;-58
2023/01/21 02:00:03;;;;;;;136.27;37.50;;;;;;;-3.54;100.00;102614.50;5055301;28;20042;-58
2023/01/21 02:02:29;;;;;;;305.00;130.30;;;;;;;-3.67;100.00;102623.19;5054789;28;20021;-59
2023/01/21 02:04:59;;;;;;;303.20;130.75;;;;;;;-3.70;100.00;102627.84;5054351;28;20380;-58
2023/01/21 02:07:27;;;;;;;326.25;140.77;;;;;;;-3.64;100.00;102627.69;5054849;28;20040;-58
2023/01/21 02:09:55;;;;;;;181.98;45.22;;;;;;;-3.58;100.00;102635.91;5054712;28;20048;-57
2023/01/21 02:12:21;;;;;;;318.40;138.48;;;;;;;-3.69;100.00;102629.66;5054224;28;20052;-58
2023/01/21 02:14:47;;;;;;;340.73;142.88;;;;;;;-3.71;100.00;102631.06;5054512;28;20055;-58
2023/01/21 02:17:31;;;;;;;335.83;141.73;;;;;;;-3.67;100.00;102643.34;5054674;28;20419;-58
2023/01/21 02:20:31;;;;;;;332.27;147.23;;;;;;;-3.68;100.00;102651.63;5053993;28;20082;-57
2023/01/21 02:23:22;;;;;;;354.15;150.40;;;;;;;-3.69;100.00;102654.84;5054787;28;20079;-58
2023/01/21 02:26:01;;;;;;;357.63;147.68;;;;;;;-3.72;100.00;102663.66;5053863;28;20029;-57
2023/01/21 02:29:10;;;;;;;357.60;149.93;;;;;;;-3.73;100.00;102660.25;5054429;28;20032;-59
2023/01/21 02:32:12;;;;;;;346.80;148.32;;;;;;;-3.74;100.00;102660.09;5054362;28;20029;-58
2023/01/21 02:35:04;;;;;;;349.42;149.80;;;;;;;-3.79;100.00;102661.16;5053352;28;20380;-58
2023/01/21 02:37:35;;;;;;;191.45;47.53;;;;;;;-3.74;100.00;102660.97;5053957;28;20571;-59
2023/01/21 02:40:24;;;;;;;348.63;145.63;;;;;;;-3.87;100.00;102673.75;5053727;28;20021;-58
2023/01/21 02:43:18;;;;;;;340.55;144.57;;;;;;;-3.85;100.00;102676.44;5053849;28;20028;-58
2023/01/21 02:45:50;;;;;;;181.13;47.25;;;;;;;-3.80;100.00;102675.38;5054086;28;20163;-58
2023/01/21 02:48:21;;;;;;;333.83;141.75;;;;;;;-3.87;100.00;102675.38;5053457;28;20103;-58
2023/01/21 02:50:49;;;;;;;339.58;143.38;;;;;;;-3.95;100.00;102674.50;5053848;28;20075;-58
2023/01/21 02:53:23;;;;;;;322.33;140.10;;;;;;;-3.95;100.00;102684.56;5054002;28;20040;-58
2023/01/21 02:55:49;;;;;;;334.48;138.32;;;;;;;-3.98;100.00;102690.16;5052912;28;20029;-58
2023/01/21 02:58:18;;;;;;;164.20;42.22;;;;;;;-3.89;100.00;102691.94;5054158;28;20027;-58
2023/01/21 03:01:13;;;;;;;182.10;44.40;;;;;;;-3.87;100.00;102691.38;5052961;28;20371;-59
2023/01/21 03:03:47;;;;;;;318.98;132.10;;;;;;;-3.93;100.00;102698.22;5053448;28;20107;-58
2023/01/21 03:06:36;;;;;;;312.40;129.88;;;;;;;-3.96;100.00;102697.88;5053672;28;20025;-58
2023/01/21 03:09:18;;;;;;;316.90;128.73;;;;;;;-3.99;100.00;102692.47;5052011;28;20126;-58
2023/01/21 03:11:52;;;;;;;157.23;39.80;;;;;;;-3.92;100.00;102699.16;5053376;28;20036;-58
2023/01/21 03:17:43;;;;;;;309.85;125.55;;;;;;;-4.03;100.00;102703.81;5053890;28;20427;-58
2023/01/21 03:20:36;;;;;;;318.90;127.07;;;;;;;-4.01;100.00;102709.91;5053571;28;20477;-58
2023/01/21 03:23:05;;;;;;;307.52;124.75;;;;;;;-4.02;100.00;102713.16;5052922;28;20025;-58
2023/01/21 03:25:33;;;;;;;299.10;122.80;;;;;;;-4.05;100.00;102712.78;5053233;28;20021;-59
2023/01/21 03:27:59;;;;;;;;;;;;;;;-3.95;100.00;102714.78;5053931;28;20052;-58
2023/01/21 03:30:25;;;;;;;302.77;121.95;;;;;;;-4.05;100.00;102706.88;5052724;28;19913;-58
2023/01/21 03:32:54;;;;;;;305.98;119.75;;;;;;;-4.07;100.00;102718.38;5053008;28;20025;-58
2023/01/21 03:35:26;;;;;;;310.13;120.18;;;;;;;-4.08;100.00;102711.53;5053219;28;20031;-57
2023/01/21 03:38:02;;;;;;;147.38;36.58;;;;;;;-4.02;100.00;102718.19;5052485;28;20381;-59
2023/01/21 03:40:35;;;;;;;290.10;119.50;;;;;;;-4.10;100.00;102723.94;5052932;28;20351;-59
2023/01/21 03:43:01;;;;;;;151.35;37.25;;;;;;;-4.03;100.00;102733.13;5052286;28;20473;-58
2023/01/21 03:45:32;;;;;;;310.40;121.43;;;;;;;-4.08;100.00;102730.06;5053107;28;20029;-57
2023/01/21 03:48:03;;;;;;;154.32;34.63;;;;;;;-4.01;100.00;102724.13;5053279;28;20025;-58
2023/01/21 03:50:36;;;;;;;293.25;116.57;;;;;;;-4.13;100.00;102737.06;5052174;28;20070;-58
2023/01/21 03:53:02;;;;;;;300.38;115.45;;;;;;;-4.13;100.00;102739.59;5052948;28;20071;-58
2023/01/21 03:55:27;;;;;;;132.95;34.10;;;;;;;-4.05;100.00;102739.63;5052874;28;20037;-58
2023/01/21 03:57:52;;;;;;;278.42;111.35;;;;;;;-4.13;100.00;102744.63;5052220;28;20031;-57
2023/01/21 04:00:18;;;;;;;134.90;32.55;;;;;;;-4.06;100.00;102746.25;5052790;28;20032;-58
2023/01/21 04:02:43;;;;;;;296.92;117.10;;;;;;;-4.10;100.00;102746.59;5052694;28;20358;-57
2023/01/21 04:05:08;;;;;;;154.60;34.40;;;;;;;-4.04;100.00;102739.78;5052276;28;20070;-58
2023/01/21 04:07:34;;;;;;;295.13;116.88;;;;;;;-4.11;100.00;102742.28;5052713;28;20013;-58
2023/01/21 04:09:59;;;;;;;306.38;117.72;;;;;;;-4.08;100.00;102741.75;5052540;28;20389;-58
2023/01/21 04:12:24;;;;;;;298.85;117.45;;;;;;;-4.09;100.00;102748.41;5052080;28;20033;-58
2023/01/21 04:14:50;;;;;;;143.65;31.60;;;;;;;-4.04;100.00;102749.84;5052475;28;20102;-58
2023/01/21 04:17:15;;;;;;;300.20;114.97;;;;;;;-4.05;100.00;102750.56;5052925;28;20033;-58
2023/01/21 04:19:40;;;;;;;288.58;112.63;;;;;;;-4.13;100.00;102758.84;5053138;28;20100;-58
2023/01/21 04:22:05;;;;;;;298.65;112.45;;;;;;;-4.17;100.00;102767.63;5056766;28;20028;-58
2023/01/21 04:24:31;;;;;;;290.80;113.10;;;;;;;-4.17;100.00;102761.69;5056549;28;20040;-58
2023/01/21 04:26:56;;;;;;;138.63;32.88;;;;;;;-4.09;100.00;102768.56;5056216;28;20072;-58
2023/01/21 04:29:21;;;;;;;280.65;107.88;;;;;;;-4.19;100.00;102768.19;5056551;28;20120;-58
2023/01/21 04:31:47;;;;;;;137.48;34.30;;;;;;;-4.11;100.00;102769.09;5056588;28;20503;-58
2023/01/21 04:34:12;;;;;;;283.70;112.72;;;;;;;-4.17;100.00;102776.78;5055888;28;20116;-58
2023/01/21 04:36:38;;;;;;;287.10;110.68;;;;;;;-4.26;100.00;102761.50;5056432;28;20025;-58
2023/01/21 04:39:03;;;;;;;287.77;109.38;;;;;;;-4.28;100.00;102765.44;5056564;28;20460;-58
2023/01/21 04:41:28;;;;;;;277.58;105.72;;;;;;;-4.31;100.00;102765.97;5055506;28;20028;-59
2023/01/21 04:43:54;;;;;;;279.65;108.20;;;;;;;-4.34;100.00;102768.13;5056511;28;20024;-58
2023/01/21 04:46:19;;;;;;;280.00;108.00;;;;;;;-4.34;100.00;102765.63;5055926;28;20021;-58
2023/01/21 04:48:44;;;;;;;283.48;109.78;;;;;;;-4.37;100.00;102770.28;5056302;28;20040;-58
2023/01/21 04:51:10;;;;;;;135.10;33.60;;;;;;;-4.28;100.00;102777.16;5056518;28;20029;-58
2023/01/21 04:53:35;;;;;;;292.15;109.60;;;;;;;-4.39;100.00;102788.41;5055323;28;20029;-59
2023/01/21 04:56:00;;;;;;;130.55;31.85;;;;;;;-4.32;100.00;102781.78;5056235;28;20079;-58
2023/01/21 04:58:26;;;;;;;278.58;109.15;;;;;;;-4.44;100.00;102785.38;5056230;28;20029;-58
2023/01/21 05:00:53;;;;;;;298.58;114.65;;;;;;;-4.43;100.00;102794.69;5055202;28;20032;-57
2023/01/21 05:03:18;;;;;;;293.35;112.65;;;;;;;-4.42;100.00;102796.50;5056163;28;20040;-58
2023/01/21 05:05:43;;;;;;;307.48;112.30;;;;;;;-4.47;100.00;102800.06;5055963;28;20021;-59
2023/01/21 05:08:09;;;;;;;290.73;111.18;;;;;;;-4.47;100.00;102805.09;5055259;28;20050;-58
2023/01/21 05:10:34;;;;;;;296.58;112.80;;;;;;;-4.48;100.00;102804.22;5055756;28;20183;-59
2023/01/21 05:12:59;;;;;;;295.88;111.38;;;;;;;-4.49;100.00;102809.06;5055981;28;20029;-59
2023/01/21 05:15:25;;;;;;;289.67;108.95;;;;;;;-4.51;100.00;102810.50;5055087;28;20358;-59
2023/01/21 05:17:50;;;;;;;292.10;108.07;;;;;;;-4.52;100.00;102807.09;5055715;28;20468;-59
2023/01/21 05:20:16;;;;;;;300.67;112.90;;;;;;;-4.53;100.00;102800.25;5056016;28;20043;-59
2023/01/21 05:22:44;;;;;;;313.27;115.82;;;;;;;-4.50;100.00;102807.28;5054981;28;20464;-58
2023/01/21 05:25:10;;;;;;;313.90;114.03;;;;;;;-4.52;100.00;102802.06;5055628;28;20025;-59
2023/01/21 05:27:35;;;;;;;300.65;114.53;;;;;;;-4.56;100.00;102802.38;5055363;28;20031;-58
2023/01/21 05:30:00;;;;;;;142.63;32.88;;;;;;;-4.46;100.00;102809.44;5054811;28;20059;-58
2023/01/21 05:32:26;;;;;;;289.65;112.72;;;;;;;-4.57;100.00;102813.16;5054383;28;20460;-58
2023/01/21 05:34:51;;;;;;;292.73;108.30;;;;;;;-4.60;100.00;102822.84;5055338;28;20030;-59
2023/01/21 05:37:16;;;;;;;285.83;108.85;;;;;;;-4.63;100.00;102833.44;5054803;28;20031;-58
2023/01/21 05:39:42;;;;;;;294.88;110.00;;;;;;;-4.68;100.00;102831.97;5055054;28;20423;-58
2023/01/21 05:42:07;;;;;;;289.50;112.22;;;;;;;-4.64;100.00;102841.69;5055395;28;20021;-58
2023/01/21 05:44:33;;;;;;;301.92;113.40;;;;;;;-4.64;100.00;102835.78;5054138;28;20112;-59
2023/01/21 05:46:58;;;;;;;149.30;33.42;;;;;;;-4.56;100.00;102837.59;5055464;28;20032;-58
2023/01/21 05:49:23;;;;;;;313.05;113.45;;;;;;;-4.56;100.00;102836.72;5055515;28;20021;-58
2023/01/21 05:51:48;;;;;;;307.30;112.72;;;;;;;-4.60;100.00;102842.09;5054456;28;20025;-58
2023/01/21 05:54:14;;;;;;;290.27;109.32;;;;;;;-4.65;100.00;102839.91;5055268;28;20120;-58
2023/01/21 05:56:39;;;;;;;311.23;114.65;;;;;;;-4.64;100.00;102831.63;5054144;28;20021;-58
2023/01/21 05:59:04;;;;;;;315.02;110.13;;;;;;;-4.60;100.00;102842.09;5055043;28;20048;-58
2023/01/21 06:01:30;;;;;;;132.65;31.02;;;;;;;-4.55;100.00;102853.63;5054756;28;20021;-58
2023/01/21 06:03:55;;;;;;;319.38;111.78;;;;;;;-4.63;100.00;102847.66;5054352;28;20037;-59
2023/01/21 06:06:20;;;;;;;310.65;115.32;;;;;;;-4.61;100.00;102842.78;5055524;28;20037;-58
2023/01/21 06:08:46;;;;;;;299.15;108.95;;;;;;;-4.64;100.00;102859.31;5054625;28;20381;-58
2023/01/21 06:11:11;;;;;;;148.73;34.22;;;;;;;-4.55;100.00;102861.16;5054471;28;20048;-58
2023/01/21 06:13:36;;;;;;;316.08;113.28;;;;;;;-4.58;100.00;102856.66;5054476;28;20091;-58
2023/01/21 06:16:02;;;;;;;320.35;115.30;;;;;;;-4.55;100.00;102866.19;5055007;28;20025;-58
2023/01/21 06:18:27;;;;;;;327.85;115.18;;;;;;;-4.59;100.00;102861.50;5053729;28;20341;-58
2023/01/21 06:20:52;;;;;;;308.77;113.32;;;;;;;-4.61;100.00;102866.31;5054860;28;20029;-58
2023/01/21 06:23:18;;;;;;;291.50;109.60;;;;;;;-4.66;100.00;102860.75;5054782;28;20021;-58
2023/01/21 06:25:43;;;;;;;129.55;33.13;;;;;;;-4.55;100.00;102869.59;5053458;28;20112;-58
2023/01/21 06:28:11;;;;;;;298.52;113.43;;;;;;;-4.66;100.00;102872.41;5054578;28;20449;-58
2023/01/21 06:30:37;;;;;;;307.65;113.00;;;;;;;-4.64;100.00;102869.38;5054997;28;20028;-58
2023/01/21 06:33:03;;;;;;;310.55;112.65;;;;;;;-4.63;100.00;102873.69;5053795;28;20021;-58
2023/01/21 06:35:28;;;;;;;290.33;108.32;;;;;;;-4.74;100.00;102873.09;5054019;28;20350;-58
2023/01/21 06:37:53;;;;;;;284.27;105.72;;;;;;;-4.75;100.00;102872.19;5054518;28;20067;-58
2023/01/21 06:40:19;;;;;;;271.48;108.15;;;;;;;-4.82;100.00;102884.72;5053658;28;20064;-58
2023/01/21 06:42:46;;;;;;;271.25;106.57;;;;;;;-4.82;100.00;102892.25;5053668;28;20020;-58
2023/01/21 06:45:12;;;;;;;135.63;34.60;;;;;;;-4.72;100.00;102894.31;5054416;28;20083;-58
2023/01/21 06:47:41;;;;;;;280.88;108.65;;;;;;;-4.82;100.00;102900.69;5053105;28;20369;-58
2023/01/21 06:50:12;;;;;;;286.80;107.13;;;;;;;-4.83;100.00;102905.53;5054105;28;20033;-59
2023/01/21 06:52:39;;;;;;;129.05;33.00;;;;;;;-4.74;100.00;102911.72;5053823;28;20032;-58
2023/01/21 06:55:04;;;;;;;305.77;110.50;;;;;;;-4.77;100.00;102918.00;5053355;28;20103;-59
2023/01/21 06:57:30;;;;;;;315.50;112.13;;;;;;;-4.75;100.00;102916.56;5053531;28;20132;-58
2023/01/21 06:59:55;;;;;;;317.33;114.68;;;;;;;-4.75;100.00;102920.00;5053329;28;20036;-58
2023/01/21 07:02:20;;;;;;;306.95;111.85;;;;;;;-4.79;100.00;102930.34;5053934;28;20031;-58
2023/01/21 07:04:47;;;;;;;310.48;110.78;;;;;;;-4.80;100.00;102923.56;5053659;28;20480;-58
2023/01/21 07:07:13;;;;;;;318.50;110.45;;;;;;;-4.81;100.00;102932.69;5053031;28;20359;-58
2023/01/21 07:09:38;;;;;;;144.25;32.30;;;;;;;-4.72;100.00;102934.56;5053294;28;20059;-58
2023/01/21 07:12:03;;;;;;;291.88;107.00;;;;;;;-4.90;100.00;102936.59;5053615;28;20036;-58
2023/01/21 07:14:29;;;;;;;158.27;33.58;;;;;;;-4.78;100.00;102943.88;5052676;28;20024;-58
2023/01/21 07:16:54;;;;;;;279.92;103.45;;;;;;;-4.98;100.00;102945.69;5053648;28;20021;-57
2023/01/21 07:19:19;;;;;;;287.10;106.88;;;;;;;-4.99;100.00;102946.38;5053585;28;20369;-57
2023/01/21 07:21:45;;;;;;;288.83;106.40;;;;;;;-5.02;100.00;102952.63;5052400;28;20116;-58
2023/01/21 07:24:10;;;;;;;134.73;31.88;;;;;;;-4.92;100.00;102954.69;5053358;28;20028;-58
2023/01/21 07:26:36;;;;;;;308.42;109.90;;;;;;;-4.99;100.00;102948.91;5053092;28;20333;-57
2023/01/21 07:29:04;;;;;;;141.88;34.63;;;;;;;-4.89;100.00;102955.06;5052713;28;20040;-57
2023/01/21 07:31:30;;;;;;;312.73;108.68;;;;;;;-4.94;100.00;102954.50;5053032;28;20369;-57
2023/01/21 07:33:55;;;;;;;142.00;33.78;;;;;;;-4.88;100.00;102959.41;5053343;28;20029;-57
2023/01/21 07:36:20;;;;;;;119.18;30.90;;;;;;;-4.85;100.00;102964.84;5052468;28;20111;-58
2023/01/21 07:38:46;;;;;;;129.52;31.23;;;;;;;-4.84;100.00;102971.66;5052933;28;20420;-58
2023/01/21 07:41:11;;;;;;;327.30;115.38;;;;;;;-4.81;100.00;102980.50;5053028;28;20021;-57
2023/01/21 07:43:36;;;;;;;151.98;31.92;;;;;;;-4.72;100.00;102982.38;5052085;28;20063;-58
2023/01/21 07:46:02;;;;;;;153.93;34.35;;;;;;;-4.64;100.00;102987.63;5053095;28;20404;-58
2023/01/21 07:48:27;;;;;;;376.67;123.78;;;;;;;-4.50;100.00;102990.97;5053071;28;20053;-58
2023/01/21 07:50:55;;;;;;;411.73;131.52;;;;;;;-4.42;100.00;102995.34;5052412;28;20381;-57
2023/01/21 07:53:21;;;;;;;433.60;135.07;;;;;;;-4.34;100.00;102999.75;5052960;28;20029;-57
2023/01/21 07:55:46;;;;;;;446.45;135.73;;;;;;;-4.26;100.00;103002.28;5051909;28;20034;-57
2023/01/21 07:58:11;;;;;;;456.42;138.55;;;;;;;-4.19;100.00;103007.38;5052317;28;20023;-57
2023/01/21 08:00:36;;;;;;;168.20;37.83;;;;;;;-4.12;100.00;103017.47;5052689;28;20032;-57
2023/01/21 08:03:02;;;;;;;482.33;145.13;;;;;;;-4.00;100.00;103021.53;5052874;28;20043;-57
2023/01/21 08:05:27;;;;;;;206.45;39.35;;;;;;;-3.92;100.00;103021.59;5051943;28;20025;-57
2023/01/21 08:07:56;;;;;;;490.35;143.15;;;;;;;-3.87;100.00;103023.94;5052763;28;20495;-57
2023/01/21 08:10:21;;;;;;;200.85;40.47;;;;;;;-3.80;100.00;103033.13;5051817;28;20041;-57
2023/01/21 08:12:46;;;;;;;494.85;146.32;;;;;;;-3.76;100.00;103037.84;5052339;28;20033;-57
2023/01/21 08:15:12;;;;;;;182.65;37.50;;;;;;;-3.69;100.00;103042.94;5052797;28;20045;-57
2023/01/21 08:17:38;;;;;;;189.35;41.35;;;;;;;-3.62;100.00;103043.69;5051794;28;20036;-57
2023/01/21 08:20:04;;;;;;;497.20;145.25;;;;;;;-3.57;100.00;103057.75;5052632;28;20067;-57
2023/01/21 08:22:30;;;;;;;197.65;39.53;;;;;;;-3.50;100.00;103060.28;5052244;28;20396;-58
2023/01/21 08:24:55;;;;;;;498.75;147.77;;;;;;;-3.49;100.00;103062.09;5051831;28;20029;-58
2023/01/21 08:27:20;;;;;;;511.92;149.40;;;;;;;-3.46;100.00;103052.38;5052448;28;20060;-58
2023/01/21 08:29:47;;;;;;;521.60;151.95;;;;;;;-3.42;100.00;103067.19;5052396;28;20029;-58
2023/01/21 08:32:12;;;;;;;531.67;155.95;;;;;;;-3.39;100.00;103072.59;5051852;28;20021;-57
2023/01/21 08:34:38;;;;;;;540.72;155.65;;;;;;;-3.32;100.00;103067.59;5052357;28;20479;-57
2023/01/21 08:37:03;;;;;;;518.63;148.88;;;;;;;-3.29;100.00;103074.63;5052449;28;20476;-57
2023/01/21 08:39:28;;;;;;;213.90;40.30;;;;;;;-3.20;100.00;103077.31;5051399;28;20028;-57
2023/01/21 08:41:53;;;;;;;534.38;150.15;;;;;;;-3.22;100.00;103078.78;5052622;28;20534;-57
2023/01/21 08:44:19;;;;;;;516.83;148.30;;;;;;;-3.22;100.00;103084.72;5052597;28;20040;-56
2023/01/21 08:46:44;;;;;;;529.88;149.32;;;;;;;-3.18;100.00;103086.00;5051561;28;20374;-57
2023/01/21 08:49:09;;;;;;;527.15;148.30;;;;;;;-3.18;100.00;103096.09;5052408;28;20025;-57
2023/01/21 08:51:35;;;;;;;538.83;149.30;;;;;;;-3.15;100.00;103094.84;5052084;28;20381;-57
2023/01/21 08:54:00;;;;;;;544.67;148.20;;;;;;;-3.14;100.00;103098.25;5051584;28;20060;-56
2023/01/21 08:56:25;;;;;;;561.22;152.38;;;;;;;-3.10;100.00;103095.38;5052547;28;20103;-57
2023/01/21 08:58:55;;;;;;;583.28;153.65;;;;;;;-2.99;100.00;103104.25;5051949;28;20052;-56
2023/01/21 09:01:21;;;;;;;562.13;151.07;;;;;;;-3.01;100.00;103101.56;5051504;28;20473;-57
2023/01/21 09:03:46;;;;;;;530.38;142.55;;;;;;;-3.00;100.00;103103.34;5051893;28;20114;-57
2023/01/21 09:06:12;;;;;;;535.45;143.55;;;;;;;-2.98;100.00;103112.00;5054336;28;20021;-56
2023/01/21 09:08:38;;;;;;;530.20;145.48;;;;;;;-2.95;100.00;103118.16;5054635;28;20025;-57
2023/01/21 09:11:05;;;;;;;206.98;36.08;;;;;;;-2.86;100.00;103120.16;5056198;28;20043;-57
2023/01/21 09:13:38;;;;;;;531.20;141.15;;;;;;;-2.89;100.00;103118.88;5054973;28;20029;-57
2023/01/21 09:16:14;;;;;;;541.20;141.07;;;;;;;-2.86;100.00;103116.72;5056015;28;20060;-57
2023/01/21 09:18:40;;;;;;;225.90;38.92;;;;;;;-2.77;100.00;103120.34;5055594;28;20372;-57
2023/01/21 09:21:07;;;;;;;541.17;137.82;;;;;;;-2.82;100.00;103114.75;5054777;28;20500;-57
2023/01/21 09:23:34;;;;;;;561.60;142.18;;;;;;;-2.78;100.00;103112.59;5055433;28;20053;-56
2023/01/21 09:25:59;;;;;;;529.85;140.65;;;;;;;-2.77;100.00;103116.94;5055528;28;20104;-57
2023/01/21 09:28:24;;;;;;;550.78;143.40;;;;;;;-2.73;100.00;103114.94;5054871;28;20121;-57
2023/01/21 09:30:55;;;;;;;554.55;145.20;;;;;;;-2.64;100.00;103125.25;5055309;28;20021;-57
2023/01/21 09:33:20;;;;;;;553.22;143.02;;;;;;;-2.63;100.00;103121.09;5055447;28;20056;-57
2023/01/21 09:35:52;;;;;;;557.75;148.25;;;;;;;-2.61;100.00;103122.19;5054268;28;20021;-57
2023/01/21 09:38:17;;;;;;;570.80;145.23;;;;;;;-2.58;100.00;103127.59;5055603;28;20079;-57
2023/01/21 09:40:44;;;;;;;562.55;141.57;;;;;;;-2.58;100.00;103130.13;5055232;28;20381;-57
2023/01/21 09:43:16;;;;;;;557.17;136.95;;;;;;;-2.56;100.00;103137.16;5054799;28;20035;-56
2023/01/21 09:45:43;;;;;;;219.27;40.58;;;;;;;-2.49;100.00;103146.38;5055144;28;20037;-57
2023/01/21 09:48:15;;;;;;;533.50;136.17;;;;;;;-2.63;100.00;103152.31;5055156;28;20017;-57
2023/01/21 09:50:45;;;;;;;507.30;133.93;;;;;;;-2.67;100.00;103148.50;5054394;28;20268;-57
2023/01/21 09:53:25;;;;;;;517.67;134.40;;;;;;;-2.63;100.00;103166.53;5055241;28;20032;-57
2023/01/21 09:55:52;;;;;;;497.10;128.52;;;;;;;-2.69;100.00;103175.16;5054007;28;20472;-57
2023/01/21 09:58:22;;;;;;;509.52;131.32;;;;;;;-2.60;100.00;103169.44;5055087;28;20021;-57
2023/01/21 10:01:19;;;;;;;509.42;129.27;;;;;;;-2.58;100.00;103173.03;5054488;28;20536;-58
2023/01/21 10:03:54;;;;;;;498.95;130.70;;;;;;;-2.59;100.00;103191.44;5053959;28;20040;-57
2023/01/21 10:06:34;;;;;;;458.63;125.50;;;;;;;-2.67;100.00;103191.41;5054935;28;20025;-56
2023/01/21 10:09:23;;;;;;;488.40;129.93;;;;;;;-2.58;100.00;103190.72;5054532;28;20045;-56
2023/01/21 10:12:10;;;;;;;495.52;130.50;;;;;;;-2.59;100.00;103196.50;5053892;28;20035;-55
2023/01/21 10:15:00;;;;;;;195.98;32.95;;;;;;;-2.48;100.00;103193.63;5054651;28;20017;-56
2023/01/21 10:17:50;;;;;;;495.90;127.68;;;;;;;-2.47;100.00;103195.44;5053156;28;20028;-56
2023/01/21 10:20:21;;;;;;;508.08;131.48;;;;;;;-2.47;100.00;103199.59;5054737;28;20060;-56
2023/01/21 10:22:56;;;;;;;213.70;40.40;;;;;;;-2.38;100.00;103196.53;5054376;28;20441;-56
2023/01/21 10:25:27;;;;;;;501.10;131.93;;;;;;;-2.41;100.00;103183.53;5053943;28;20025;-56
2023/01/21 10:27:55;;;;;;;483.95;127.82;;;;;;;-2.36;100.00;103192.56;5054537;28;20100;-56
2023/01/21 10:30:30;;;;;;;490.23;128.25;;;;;;;-2.33;100.00;103184.47;5054577;28;20051;-56
2023/01/21 10:32:56;;;;;;;484.90;129.90;;;;;;;-2.26;100.00;103181.03;5053562;28;20021;-56
2023/01/21 10:35:59;;;;;;;492.10;130.68;;;;;;;-2.18;100.00;103176.19;5054594;28;20052;-56
2023/01/21 10:38:49;;;;;;;485.83;127.25;;;;;;;-2.15;100.00;103180.69;5053759;28;20106;-56
2023/01/21 10:41:52;;;;;;;474.27;125.03;;;;;;;-2.13;100.00;103174.22;5054445;28;20033;-56
2023/01/21 10:44:26;;;;;;;452.83;126.13;;;;;;;-2.04;100.00;103175.28;5054122;28;20033;-56
2023/01/21 10:47:06;;;;;;;479.70;125.97;;;;;;;-2.00;100.00;103172.41;5053338;28;20056;-56
2023/01/21 10:49:50;;;;;;;481.00;128.15;;;;;;;-1.92;100.00;103174.94;5054045;28;20111;-57
2023/01/21 10:52:29;;;;;;;493.70;130.40;;;;;;;-1.67;100.00;103164.41;5053368;28;20091;-57
2023/01/21 10:55:04;;;;;;;530.95;135.00;;;;;;;-1.44;100.00;103158.59;5053797;28;20032;-56
2023/01/21 10:57:59;;;;;;;534.25;133.85;;;;;;;-1.30;100.00;103164.34;5053526;28;20457;-56
2023/01/21 11:00:32;;;;;;;487.77;130.90;;;;;;;-1.21;100.00;103162.88;5053175;28;20025;-56
2023/01/21 11:03:01;;;;;;;194.07;36.47;;;;;;;-1.04;100.00;103160.63;5053961;28;20021;-56